createdAt,value
2018-09-26T00:00:33.509Z,8.13
2018-09-26T00:03:14.275Z,8.19
2018-09-26T00:05:43.044Z,8.24
2018-09-26T00:08:12.144Z,8.25
2018-09-26T00:10:40.870Z,8.25
2018-09-26T00:13:09.638Z,8.27
2018-09-26T00:15:38.428Z,8.29
2018-09-26T00:18:07.779Z,8.29
2018-09-26T00:20:36.828Z,8.32
2018-09-26T00:23:05.440Z,8.34
2018-09-26T00:25:34.472Z,8.35
2018-09-26T00:28:03.308Z,8.35
2018-09-26T00:30:32.249Z,8.41
2018-09-26T00:33:01.028Z,8.48
2018-09-26T00:35:29.696Z,8.58
2018-09-26T00:37:58.536Z,8.76
2018-09-26T00:40:27.113Z,8.89
2018-09-26T00:42:55.885Z,8.97
2018-09-26T00:45:24.601Z,9.08
2018-09-26T00:47:53.567Z,9.19
2018-09-26T00:50:22.379Z,9.28
2018-09-26T00:52:51.188Z,9.38
2018-09-26T00:55:19.972Z,9.42
2018-09-26T00:57:48.662Z,9.44
2018-09-26T01:00:17.540Z,9.46
2018-09-26T01:02:46.546Z,9.53
2018-09-26T01:05:15.294Z,9.54
2018-09-26T01:07:43.949Z,9.55
2018-09-26T01:10:12.772Z,9.56
2018-09-26T01:12:41.471Z,9.58
2018-09-26T01:15:10.423Z,9.61
2018-09-26T01:17:39.214Z,9.64
2018-09-26T01:20:08.397Z,9.67
2018-09-26T01:22:37.389Z,9.69
2018-09-26T01:25:06.330Z,9.70
2018-09-26T01:27:35.771Z,9.73
2018-09-26T01:30:06.333Z,9.72
2018-09-26T01:32:35.254Z,9.75
2018-09-26T01:35:03.976Z,9.78
2018-09-26T01:37:32.691Z,9.76
2018-09-26T01:40:01.586Z,9.74
2018-09-26T01:42:30.170Z,9.74
2018-09-26T01:44:58.921Z,9.76
2018-09-26T01:47:27.714Z,9.75
2018-09-26T01:49:56.361Z,9.74
2018-09-26T01:52:24.942Z,9.75
2018-09-26T01:54:53.660Z,9.77
2018-09-26T01:57:22.324Z,9.75
2018-09-26T01:59:51.161Z,9.76
2018-09-26T02:02:19.995Z,9.77
2018-09-26T02:04:48.933Z,9.74
2018-09-26T02:07:17.579Z,9.78
2018-09-26T02:09:46.364Z,9.76
2018-09-26T02:12:14.991Z,9.76
2018-09-26T02:14:43.819Z,9.76
2018-09-26T02:17:12.715Z,9.72
2018-09-26T02:19:41.529Z,9.72
2018-09-26T02:22:10.299Z,9.68
2018-09-26T02:24:38.995Z,9.68
2018-09-26T02:27:07.623Z,9.67
2018-09-26T02:29:36.217Z,9.69
2018-09-26T02:32:05.090Z,9.69
2018-09-26T02:34:33.756Z,9.63
2018-09-26T02:37:02.563Z,9.62
2018-09-26T02:39:31.408Z,9.64
2018-09-26T02:42:00.178Z,9.62
2018-09-26T02:44:28.841Z,9.61
2018-09-26T02:46:57.500Z,9.53
2018-09-26T02:49:26.481Z,9.53
2018-09-26T02:51:55.178Z,9.50
2018-09-26T02:54:23.969Z,9.47
2018-09-26T02:56:52.804Z,9.40
2018-09-26T02:59:21.613Z,9.35
2018-09-26T03:01:50.757Z,9.28
2018-09-26T03:04:19.424Z,9.29
2018-09-26T03:06:48.088Z,9.22
2018-09-26T03:09:16.748Z,9.18
2018-09-26T03:11:45.523Z,9.13
2018-09-26T03:14:14.324Z,9.10
2018-09-26T03:16:42.963Z,9.07
2018-09-26T03:19:11.602Z,9.05
2018-09-26T03:21:40.583Z,8.96
2018-09-26T03:24:09.288Z,8.93
2018-09-26T03:26:38.102Z,8.89
2018-09-26T03:29:07.165Z,8.89
2018-09-26T03:31:35.956Z,8.81
2018-09-26T03:34:04.702Z,8.83
2018-09-26T03:36:33.384Z,8.78
2018-09-26T03:39:02.175Z,8.76
2018-09-26T03:41:31.558Z,8.73
2018-09-26T03:44:00.305Z,8.70
2018-09-26T03:46:29.065Z,8.67
2018-09-26T03:48:58.136Z,8.59
2018-09-26T03:51:26.985Z,8.59
2018-09-26T03:53:55.614Z,8.52
2018-09-26T03:56:24.288Z,8.52
2018-09-26T03:58:53.272Z,8.51
2018-09-26T04:01:21.936Z,8.43
2018-09-26T04:03:50.692Z,8.41
2018-09-26T04:06:19.313Z,8.34
2018-09-26T04:08:48.421Z,7.21
2018-09-26T04:11:17.200Z,8.32
2018-09-26T04:13:46.144Z,8.21
2018-09-26T04:16:14.961Z,8.25
2018-09-26T04:18:50.506Z,8.26
2018-09-26T04:21:19.211Z,8.25
2018-09-26T04:23:47.920Z,8.25
2018-09-26T04:26:16.587Z,8.19
2018-09-26T04:28:45.399Z,8.11
2018-09-26T04:31:14.137Z,8.07
2018-09-26T04:33:42.884Z,8.07
2018-09-26T04:36:11.811Z,8.08
2018-09-26T04:38:40.568Z,8.00
2018-09-26T04:41:09.516Z,8.04
2018-09-26T04:43:38.187Z,8.01
2018-09-26T04:46:07.140Z,8.02
2018-09-26T04:48:35.938Z,7.93
2018-09-26T04:51:04.815Z,7.94
2018-09-26T04:53:33.794Z,8.01
2018-09-26T04:56:02.615Z,7.99
2018-09-26T04:58:31.607Z,7.98
2018-09-26T05:01:00.471Z,8.02
2018-09-26T05:03:29.361Z,8.00
2018-09-26T05:05:57.980Z,8.02
2018-09-26T05:08:26.636Z,7.93
2018-09-26T05:10:55.281Z,7.95
2018-09-26T05:13:24.207Z,7.92
2018-09-26T05:15:52.905Z,7.86
2018-09-26T05:18:21.936Z,7.83
2018-09-26T05:20:50.679Z,7.79
2018-09-26T05:23:19.671Z,7.78
2018-09-26T05:25:48.360Z,7.78
2018-09-26T05:28:17.096Z,7.77
2018-09-26T05:30:45.981Z,7.79
2018-09-26T05:33:15.109Z,7.82
2018-09-26T05:35:43.960Z,7.86
2018-09-26T05:38:12.953Z,7.89
2018-09-26T05:40:41.612Z,7.89
2018-09-26T05:43:10.401Z,7.88
2018-09-26T05:45:39.340Z,7.89
2018-09-26T05:48:08.628Z,7.86
2018-09-26T05:50:37.288Z,7.87
2018-09-26T05:53:06.147Z,7.84
2018-09-26T05:55:34.835Z,7.85
2018-09-26T05:58:03.470Z,7.82
2018-09-26T06:00:32.392Z,7.88
2018-09-26T06:03:01.066Z,7.88
2018-09-26T06:05:30.062Z,7.90
2018-09-26T06:07:58.917Z,7.88
2018-09-26T06:10:27.705Z,7.84
2018-09-26T06:12:56.477Z,7.79
2018-09-26T06:15:25.059Z,7.82
2018-09-26T06:17:53.718Z,7.77
2018-09-26T06:20:22.462Z,7.86
2018-09-26T06:22:51.219Z,7.89
2018-09-26T06:25:20.193Z,7.90
2018-09-26T06:27:49.059Z,7.96
2018-09-26T06:30:17.634Z,7.92
2018-09-26T06:32:46.412Z,7.91
2018-09-26T06:35:15.149Z,7.89
2018-09-26T06:37:43.867Z,7.89
2018-09-26T06:40:12.653Z,7.93
2018-09-26T06:42:41.198Z,7.92
2018-09-26T06:45:10.555Z,7.93
2018-09-26T06:47:39.260Z,7.93
2018-09-26T06:50:07.925Z,7.96
2018-09-26T06:52:36.604Z,7.92
2018-09-26T06:55:05.970Z,7.82
2018-09-26T06:57:34.730Z,7.81
2018-09-26T07:00:03.631Z,7.81
2018-09-26T07:02:32.247Z,7.82
2018-09-26T07:05:00.999Z,7.87
2018-09-26T07:07:29.813Z,7.87
2018-09-26T07:09:58.563Z,7.85
2018-09-26T07:12:27.356Z,7.86
2018-09-26T07:14:56.135Z,7.98
2018-09-26T07:17:24.830Z,7.96
2018-09-26T07:19:53.508Z,8.03
2018-09-26T07:22:22.213Z,8.04
2018-09-26T07:24:50.908Z,8.08
2018-09-26T07:27:19.558Z,8.16
2018-09-26T07:29:48.485Z,8.21
2018-09-26T07:32:17.175Z,8.21
2018-09-26T07:34:45.917Z,8.18
2018-09-26T07:37:14.848Z,8.26
2018-09-26T07:39:43.736Z,8.34
2018-09-26T07:42:13.624Z,8.23
2018-09-26T07:44:42.337Z,8.38
2018-09-26T07:47:10.947Z,8.34
2018-09-26T07:49:39.653Z,8.25
2018-09-26T07:52:08.320Z,8.21
2018-09-26T07:54:36.957Z,8.23
2018-09-26T07:57:05.902Z,8.23
2018-09-26T07:59:34.610Z,8.28
2018-09-26T08:02:03.280Z,8.27
2018-09-26T08:04:32.265Z,8.31
2018-09-26T08:07:01.082Z,8.30
2018-09-26T08:09:29.689Z,8.26
2018-09-26T08:11:58.453Z,8.32
2018-09-26T08:14:27.571Z,8.34
2018-09-26T08:16:56.397Z,8.30
2018-09-26T08:19:25.181Z,8.33
2018-09-26T08:21:53.850Z,8.38
2018-09-26T08:24:22.988Z,8.42
2018-09-26T08:26:51.634Z,8.50
2018-09-26T08:29:20.343Z,8.54
2018-09-26T08:31:49.000Z,8.49
2018-09-26T08:34:17.646Z,8.41
2018-09-26T08:36:46.441Z,8.32
2018-09-26T08:39:15.168Z,8.28
2018-09-26T08:41:44.066Z,8.29
2018-09-26T08:44:12.954Z,8.26
2018-09-26T08:46:42.109Z,8.16
2018-09-26T08:49:10.933Z,8.17
2018-09-26T08:51:39.730Z,8.24
2018-09-26T08:54:08.554Z,8.24
2018-09-26T08:56:38.060Z,8.28
2018-09-26T08:59:06.868Z,8.29
2018-09-26T09:01:40.902Z,8.33
2018-09-26T09:04:09.688Z,8.30
2018-09-26T09:06:38.409Z,8.27
2018-09-26T09:09:08.021Z,8.28
2018-09-26T09:11:36.979Z,8.30
2018-09-26T09:14:05.837Z,8.34
2018-09-26T09:16:35.177Z,8.33
2018-09-26T09:19:03.931Z,8.31
2018-09-26T09:21:32.624Z,8.24
2018-09-26T09:24:01.397Z,8.24
2018-09-26T09:26:30.155Z,8.19
2018-09-26T09:28:58.825Z,8.15
2018-09-26T09:31:27.599Z,8.17
2018-09-26T09:33:56.361Z,8.16
2018-09-26T09:36:25.029Z,8.17
2018-09-26T09:38:53.885Z,8.18
2018-09-26T09:41:22.621Z,8.20
2018-09-26T09:43:51.453Z,8.27
2018-09-26T09:46:20.338Z,8.29
2018-09-26T09:48:48.904Z,8.35
2018-09-26T09:51:17.547Z,8.40
2018-09-26T09:53:46.187Z,8.44
2018-09-26T09:56:15.157Z,8.49
2018-09-26T09:58:43.863Z,8.51
2018-09-26T10:01:18.058Z,8.53
2018-09-26T10:03:46.744Z,8.56
2018-09-26T10:06:15.669Z,8.59
2018-09-26T10:08:44.543Z,8.64
2018-09-26T10:11:13.338Z,8.67
2018-09-26T10:13:42.105Z,8.70
2018-09-26T10:16:11.381Z,8.71
2018-09-26T10:18:40.352Z,8.74
2018-09-26T10:21:09.169Z,8.79
2018-09-26T10:23:37.830Z,8.85
2018-09-26T10:26:06.908Z,8.93
2018-09-26T10:28:36.235Z,8.98
2018-09-26T10:31:04.803Z,9.04
2018-09-26T10:33:33.720Z,9.16
2018-09-26T10:36:02.478Z,9.32
2018-09-26T10:38:31.153Z,9.45
2018-09-26T10:40:59.881Z,9.49
2018-09-26T10:43:28.600Z,9.47
2018-09-26T10:45:57.285Z,9.52
2018-09-26T10:48:25.937Z,9.57
2018-09-26T10:50:54.753Z,9.65
2018-09-26T10:53:23.550Z,9.76
2018-09-26T10:55:52.515Z,9.99
2018-09-26T10:58:21.231Z,10.19
2018-09-26T11:00:50.510Z,10.46
2018-09-26T11:03:19.276Z,10.48
2018-09-26T11:05:48.100Z,10.64
2018-09-26T11:08:17.270Z,10.66
2018-09-26T11:10:45.909Z,10.63
2018-09-26T11:13:14.692Z,11.00
2018-09-26T11:15:43.370Z,11.27
2018-09-26T11:18:12.283Z,11.67
2018-09-26T11:20:40.911Z,12.06
2018-09-26T11:23:09.660Z,12.29
2018-09-26T11:25:38.476Z,12.34
2018-09-26T11:28:07.379Z,12.61
2018-09-26T11:30:36.177Z,12.83
2018-09-26T11:33:04.950Z,12.72
2018-09-26T11:35:33.746Z,12.94
2018-09-26T11:38:02.529Z,13.12
2018-09-26T11:40:31.223Z,13.22
2018-09-26T11:43:00.082Z,13.17
2018-09-26T11:45:28.855Z,13.06
2018-09-26T11:47:57.484Z,13.02
2018-09-26T11:50:26.207Z,13.02
2018-09-26T11:52:54.901Z,13.17
2018-09-26T11:55:23.618Z,13.07
2018-09-26T11:57:52.608Z,12.93
2018-09-26T12:00:22.230Z,13.07
2018-09-26T12:02:50.960Z,13.30
2018-09-26T12:05:19.724Z,13.25
2018-09-26T12:07:48.361Z,13.00
2018-09-26T12:10:17.577Z,13.19
2018-09-26T12:12:46.389Z,13.39
2018-09-26T12:15:16.052Z,13.31
2018-09-26T12:17:45.111Z,13.23
2018-09-26T12:20:14.152Z,13.15
2018-09-26T12:22:43.052Z,13.26
2018-09-26T12:25:11.740Z,13.29
2018-09-26T12:27:40.505Z,13.57
2018-09-26T12:30:09.347Z,13.58
2018-09-26T12:32:38.711Z,13.55
2018-09-26T12:35:07.684Z,13.43
2018-09-26T12:37:36.262Z,13.47
2018-09-26T12:40:05.268Z,13.39
2018-09-26T12:42:34.071Z,13.17
2018-09-26T12:45:02.813Z,13.08
2018-09-26T12:47:31.743Z,13.22
2018-09-26T12:50:00.560Z,13.42
2018-09-26T12:52:29.298Z,13.76
2018-09-26T12:54:58.552Z,13.98
2018-09-26T12:57:27.459Z,14.26
2018-09-26T12:59:56.170Z,13.83
2018-09-26T13:02:25.389Z,13.35
2018-09-26T13:04:54.194Z,12.74
2018-09-26T13:07:22.903Z,12.56
2018-09-26T13:09:51.665Z,12.26
2018-09-26T13:12:20.655Z,12.14
2018-09-26T13:14:49.553Z,12.05
2018-09-26T13:17:18.379Z,12.04
2018-09-26T13:19:47.049Z,12.04
2018-09-26T13:22:15.801Z,12.04
2018-09-26T13:24:44.557Z,11.99
2018-09-26T13:27:13.322Z,11.94
2018-09-26T13:29:42.191Z,11.98
2018-09-26T13:32:10.980Z,11.93
2018-09-26T13:34:39.854Z,11.87
2018-09-26T13:37:08.467Z,11.85
2018-09-26T13:39:37.298Z,11.79
2018-09-26T13:42:06.507Z,11.75
2018-09-26T13:44:35.315Z,11.70
2018-09-26T13:47:04.143Z,11.67
2018-09-26T13:49:33.105Z,11.71
2018-09-26T13:52:02.061Z,11.86
2018-09-26T13:54:30.858Z,11.96
2018-09-26T13:56:59.892Z,11.95
2018-09-26T13:59:28.744Z,11.93
2018-09-26T14:01:57.595Z,11.85
2018-09-26T14:04:26.707Z,11.84
2018-09-26T14:06:55.510Z,11.83
2018-09-26T14:09:24.356Z,11.85
2018-09-26T14:11:53.169Z,11.92
2018-09-26T14:14:22.356Z,12.19
2018-09-26T14:16:50.974Z,12.04
2018-09-26T14:19:19.948Z,11.98
2018-09-26T14:21:48.755Z,11.92
2018-09-26T14:24:17.763Z,11.83
2018-09-26T14:26:46.540Z,11.77
2018-09-26T14:29:15.388Z,11.78
2018-09-26T14:31:44.319Z,11.71
2018-09-26T14:34:13.013Z,11.73
2018-09-26T14:36:41.881Z,11.71
2018-09-26T14:39:10.584Z,11.66
2018-09-26T14:41:39.404Z,11.57
2018-09-26T14:44:08.474Z,11.83
2018-09-26T14:46:37.472Z,11.92
2018-09-26T14:49:06.250Z,11.94
2018-09-26T14:51:35.004Z,11.93
2018-09-26T14:54:03.942Z,11.98
2018-09-26T14:56:32.582Z,11.87
2018-09-26T14:59:01.779Z,11.66
2018-09-26T15:01:30.616Z,11.43
2018-09-26T15:03:59.563Z,11.20
2018-09-26T15:06:28.277Z,11.13
2018-09-26T15:08:57.098Z,10.95
2018-09-26T15:11:25.706Z,10.91
2018-09-26T15:13:54.485Z,10.83
2018-09-26T15:16:23.178Z,10.81
2018-09-26T15:18:52.245Z,10.75
2018-09-26T15:21:21.033Z,10.70
2018-09-26T15:23:49.799Z,10.64
2018-09-26T15:26:18.854Z,10.58
2018-09-26T15:28:47.627Z,10.52
2018-09-26T15:31:17.050Z,10.49
2018-09-26T15:33:45.823Z,10.46
2018-09-26T15:36:14.860Z,10.44
2018-09-26T15:38:43.588Z,10.39
2018-09-26T15:41:12.511Z,10.38
2018-09-26T15:43:41.427Z,10.37
2018-09-26T15:46:10.666Z,10.30
2018-09-26T15:48:39.942Z,10.30
2018-09-26T15:51:08.686Z,10.27
2018-09-26T15:53:37.497Z,10.24
2018-09-26T15:56:06.408Z,10.19
2018-09-26T15:58:35.305Z,10.16
2018-09-26T16:01:04.105Z,10.12
2018-09-26T16:03:33.100Z,10.05
2018-09-26T16:06:02.012Z,10.00
2018-09-26T16:08:30.881Z,9.98
2018-09-26T16:11:00.332Z,9.94
2018-09-26T16:13:29.388Z,9.88
2018-09-26T16:15:58.232Z,9.83
2018-09-26T16:18:27.320Z,9.77
2018-09-26T16:20:56.256Z,9.71
2018-09-26T16:23:25.190Z,9.72
2018-09-26T16:25:54.096Z,9.68
2018-09-26T16:28:22.974Z,9.68
2018-09-26T16:30:51.939Z,9.66
2018-09-26T16:33:20.691Z,9.66
2018-09-26T16:35:49.487Z,9.58
2018-09-26T16:38:18.352Z,9.53
2018-09-26T16:40:47.130Z,9.53
2018-09-26T16:43:15.802Z,9.51
2018-09-26T16:45:44.734Z,9.49
2018-09-26T16:48:13.628Z,9.45
2018-09-26T16:50:42.615Z,9.43
2018-09-26T16:53:11.216Z,9.40
2018-09-26T16:55:40.003Z,9.33
2018-09-26T16:58:08.989Z,9.28
2018-09-26T17:00:37.849Z,9.23
2018-09-26T17:03:06.870Z,9.21
2018-09-26T17:05:35.693Z,9.14
2018-09-26T17:08:04.397Z,9.09
2018-09-26T17:10:33.365Z,9.03
2018-09-26T17:13:02.764Z,8.94
2018-09-26T17:15:31.564Z,8.91
2018-09-26T17:18:00.498Z,8.90
2018-09-26T17:20:29.934Z,8.84
2018-09-26T17:22:58.876Z,8.73
2018-09-26T17:25:28.122Z,8.70
2018-09-26T17:27:57.066Z,8.57
2018-09-26T17:30:26.069Z,8.48
2018-09-26T17:32:54.700Z,8.44
2018-09-26T17:35:23.500Z,8.35
2018-09-26T17:37:52.172Z,8.30
2018-09-26T17:40:21.136Z,8.26
2018-09-26T17:42:50.175Z,8.20
2018-09-26T17:45:18.850Z,8.16
2018-09-26T17:47:47.709Z,8.14
2018-09-26T17:50:17.456Z,8.12
2018-09-26T17:52:46.214Z,8.10
2018-09-26T17:55:15.001Z,8.12
2018-09-26T17:57:44.013Z,8.12
2018-09-26T18:00:12.943Z,8.12
2018-09-26T18:02:41.608Z,8.11
2018-09-26T18:05:10.550Z,8.09
2018-09-26T18:07:39.364Z,8.06
2018-09-26T18:10:08.405Z,8.05
2018-09-26T18:12:37.184Z,8.05
2018-09-26T18:15:05.878Z,8.00
2018-09-26T18:17:34.688Z,8.00
2018-09-26T18:20:03.647Z,7.99
2018-09-26T18:22:32.376Z,7.97
2018-09-26T18:25:01.153Z,7.98
2018-09-26T18:27:30.260Z,7.96
2018-09-26T18:29:59.437Z,8.00
2018-09-26T18:32:28.532Z,7.96
2018-09-26T18:34:57.703Z,7.95
2018-09-26T18:37:26.517Z,7.96
2018-09-26T18:39:55.326Z,7.97
2018-09-26T18:42:24.020Z,7.95
2018-09-26T18:44:52.916Z,7.97
2018-09-26T18:47:21.625Z,7.96
2018-09-26T18:49:50.418Z,7.97
2018-09-26T18:52:19.094Z,7.97
2018-09-26T18:54:48.020Z,8.00
2018-09-26T18:57:16.809Z,8.01
2018-09-26T18:59:45.838Z,7.98
2018-09-26T19:02:14.621Z,7.97
2018-09-26T19:04:43.330Z,7.99
2018-09-26T19:07:12.573Z,7.99
2018-09-26T19:09:41.397Z,8.04
2018-09-26T19:12:10.387Z,8.04
2018-09-26T19:14:39.303Z,8.00
2018-09-26T19:17:08.397Z,7.99
2018-09-26T19:19:37.065Z,7.98
2018-09-26T19:22:05.961Z,7.99
2018-09-26T19:24:34.692Z,7.98
2018-09-26T19:27:03.736Z,7.98
2018-09-26T19:29:32.483Z,7.96
2018-09-26T19:32:01.142Z,7.96
2018-09-26T19:34:30.240Z,7.98
2018-09-26T19:36:58.997Z,7.99
2018-09-26T19:39:27.785Z,7.96
2018-09-26T19:41:56.555Z,7.95
2018-09-26T19:44:25.272Z,7.95
2018-09-26T19:46:54.308Z,7.95
2018-09-26T19:49:23.253Z,7.94
2018-09-26T19:51:52.376Z,7.96
2018-09-26T19:54:21.362Z,7.96
2018-09-26T19:56:50.185Z,7.95
2018-09-26T19:59:18.954Z,7.95
2018-09-26T20:01:47.780Z,7.95
2018-09-26T20:04:16.651Z,7.95
2018-09-26T20:06:45.382Z,7.97
2018-09-26T20:09:14.207Z,7.96
2018-09-26T20:11:43.162Z,7.99
2018-09-26T20:14:11.992Z,7.96
2018-09-26T20:16:40.966Z,7.82
2018-09-26T20:19:09.972Z,7.99
2018-09-26T20:21:38.670Z,8.00
2018-09-26T20:24:07.696Z,7.99
2018-09-26T20:26:36.508Z,7.99
2018-09-26T20:29:05.729Z,8.01
2018-09-26T20:31:34.704Z,8.03
2018-09-26T20:34:03.423Z,7.98
2018-09-26T20:36:32.139Z,7.99
2018-09-26T20:39:01.035Z,8.01
2018-09-26T20:41:29.841Z,8.00
2018-09-26T20:43:58.583Z,8.04
2018-09-26T20:46:27.269Z,8.06
2018-09-26T20:48:55.989Z,8.07
2018-09-26T20:51:24.973Z,8.05
2018-09-26T20:53:54.103Z,8.08
2018-09-26T20:56:22.886Z,8.09
2018-09-26T20:58:52.032Z,8.07
2018-09-26T21:01:21.151Z,8.07
2018-09-26T21:03:50.056Z,8.06
2018-09-26T21:06:19.189Z,8.11
2018-09-26T21:08:47.867Z,8.10
2018-09-26T21:11:16.663Z,8.06
2018-09-26T21:13:45.261Z,8.13
2018-09-26T21:16:13.911Z,8.13
2018-09-26T21:18:42.665Z,8.15
2018-09-26T21:21:11.314Z,8.16
2018-09-26T21:23:39.937Z,8.16
2018-09-26T21:26:09.045Z,8.13
2018-09-26T21:28:37.945Z,8.13
2018-09-26T21:31:07.039Z,8.10
2018-09-26T21:33:35.945Z,8.13
2018-09-26T21:36:04.645Z,8.12
2018-09-26T21:38:33.775Z,8.13
2018-09-26T21:41:02.519Z,8.13
2018-09-26T21:43:31.601Z,8.13
2018-09-26T21:46:00.410Z,8.12
2018-09-26T21:48:29.341Z,8.16
2018-09-26T21:50:58.196Z,8.19
2018-09-26T21:53:26.964Z,8.16
2018-09-26T21:55:55.654Z,8.16
2018-09-26T21:58:24.297Z,8.13
2018-09-26T22:00:58.262Z,8.13
2018-09-26T22:03:27.088Z,8.11
2018-09-26T22:05:55.780Z,8.18
2018-09-26T22:08:24.826Z,8.16
2018-09-26T22:10:53.559Z,8.16
2018-09-26T22:13:22.841Z,8.15
2018-09-26T22:15:51.731Z,8.11
2018-09-26T22:18:20.548Z,8.13
2018-09-26T22:20:49.269Z,8.17
2018-09-26T22:23:17.890Z,8.16
2018-09-26T22:25:46.544Z,8.15
2018-09-26T22:28:15.222Z,8.20
2018-09-26T22:30:44.148Z,8.19
2018-09-26T22:33:13.349Z,8.19
2018-09-26T22:35:42.337Z,8.15
2018-09-26T22:38:11.277Z,8.13
2018-09-26T22:40:40.029Z,8.14
2018-09-26T22:43:08.895Z,8.16
2018-09-26T22:45:37.576Z,8.13
2018-09-26T22:48:06.487Z,8.12
2018-09-26T22:50:35.513Z,8.15
2018-09-26T22:53:04.285Z,8.15
2018-09-26T22:55:33.150Z,8.10
2018-09-26T22:58:01.822Z,8.12
2018-09-26T23:00:30.600Z,8.08
2018-09-26T23:02:59.333Z,8.07
2018-09-26T23:05:28.345Z,8.04
2018-09-26T23:07:57.098Z,8.09
2018-09-26T23:10:25.983Z,8.14
2018-09-26T23:12:54.780Z,8.16
2018-09-26T23:15:23.767Z,8.15
2018-09-26T23:17:52.483Z,8.12
2018-09-26T23:20:21.291Z,8.10
2018-09-26T23:22:50.078Z,8.04
2018-09-26T23:25:18.693Z,8.01
2018-09-26T23:27:47.465Z,7.99
2018-09-26T23:30:16.290Z,7.98
2018-09-26T23:32:44.936Z,7.97
2018-09-26T23:35:13.567Z,7.93
2018-09-26T23:37:42.515Z,7.90
2018-09-26T23:40:11.135Z,7.87
2018-09-26T23:42:39.888Z,7.86
2018-09-26T23:45:08.614Z,7.83
2018-09-26T23:47:37.308Z,7.83
2018-09-26T23:50:06.772Z,7.77
2018-09-26T23:52:35.522Z,7.79
2018-09-26T23:55:04.407Z,7.77
2018-09-26T23:57:33.284Z,7.76
